Archival Weather

Chicago O'Hare International

Chicago, Illinois (KORD)

Report from: Tuesday, September 19, 2023 12:51 AM CDT
Current time: Friday, June 21, 2024 7:44 PM CDT

Current weather – Weather history – Daily summaries
Weather forecast

Temperature15.0°C (59.0°F)
Dew point11.7°C (53.1°F)
Winds 4 kts (2.1 m/s, 4.6 mph) Southeast (140°)
Visibility10 mi. (16.1 km)
Clouds Few clouds 6,500 ft. (1,981 m)
Ceiling: Broken clouds 25,000 ft. (7,620 m)
Altimeter30.02 in.Hg (1017 mB)
Relative humidity81 %
Density altitude90 ft. (27 m)
Sea-level pressure101.6 kPa (1016 mB, 30.01 in.Hg)
Max temp last 6 hours18.3°C (64.9°F)
Min temp last 6 hours15.0°C (59.0°F)
Max temp last 24 hours22.8°C (73.0°F)
Min temp last 24 hours11.7°C (53.1°F)
Remarks Automated weather observing station with precipitation discriminator
Pressure falling more quickly
Flight conditions Visual Meteorological Conditions
Raw dataKORD 190551Z 14004KT 10SM FEW065 BKN250 15/12 A3002 RMK AO2 SLP163 T01500117 10183 20150 402280117 58001
An error has occurred. This application may no longer respond until reloaded. Reload 🗙